sensor_id;sensor_type;location;lat;lon;timestamp;P1;durP1;ratioP1;P2;durP2;ratioP2
65597;SDS011;52267;51.984;20.956;2022-10-22T00:00:38;29.90;;;19.30;;
65597;SDS011;52267;51.984;20.956;2022-10-22T00:03:24;29.90;;;19.20;;
65597;SDS011;52267;51.984;20.956;2022-10-22T00:05:50;30.30;;;18.70;;
65597;SDS011;52267;51.984;20.956;2022-10-22T00:08:17;30.20;;;19.50;;
65597;SDS011;52267;51.984;20.956;2022-10-22T00:10:43;29.10;;;18.00;;
65597;SDS011;52267;51.984;20.956;2022-10-22T00:13:10;23.40;;;15.90;;
65597;SDS011;52267;51.984;20.956;2022-10-22T00:15:37;31.40;;;19.20;;
65597;SDS011;52267;51.984;20.956;2022-10-22T00:18:03;29.70;;;18.30;;
65597;SDS011;52267;51.984;20.956;2022-10-22T00:20:30;33.50;;;20.20;;
65597;SDS011;52267;51.984;20.956;2022-10-22T00:22:56;30.00;;;20.30;;
65597;SDS011;52267;51.984;20.956;2022-10-22T00:25:23;26.00;;;17.80;;
65597;SDS011;52267;51.984;20.956;2022-10-22T00:27:49;25.40;;;16.30;;
65597;SDS011;52267;51.984;20.956;2022-10-22T00:30:15;33.70;;;20.60;;
65597;SDS011;52267;51.984;20.956;2022-10-22T00:32:41;31.10;;;20.40;;
65597;SDS011;52267;51.984;20.956;2022-10-22T00:35:07;30.30;;;18.10;;
65597;SDS011;52267;51.984;20.956;2022-10-22T00:37:34;26.20;;;18.20;;
65597;SDS011;52267;51.984;20.956;2022-10-22T00:40:00;30.00;;;18.90;;
65597;SDS011;52267;51.984;20.956;2022-10-22T00:42:27;26.80;;;19.50;;
65597;SDS011;52267;51.984;20.956;2022-10-22T00:48:04;24.60;;;15.30;;
65597;SDS011;52267;51.984;20.956;2022-10-22T00:50:42;28.50;;;17.80;;
65597;SDS011;52267;51.984;20.956;2022-10-22T00:53:18;26.60;;;16.70;;
65597;SDS011;52267;51.984;20.956;2022-10-22T00:55:48;25.80;;;17.20;;
65597;SDS011;52267;51.984;20.956;2022-10-22T00:58:16;29.60;;;19.50;;
65597;SDS011;52267;51.984;20.956;2022-10-22T01:00:46;30.60;;;19.60;;
65597;SDS011;52267;51.984;20.956;2022-10-22T01:03:13;22.10;;;13.60;;
65597;SDS011;52267;51.984;20.956;2022-10-22T01:05:49;29.10;;;19.30;;
65597;SDS011;52267;51.984;20.956;2022-10-22T01:15:01;26.80;;;18.80;;
65597;SDS011;52267;51.984;20.956;2022-10-22T01:29:28;28.00;;;18.60;;
65597;SDS011;52267;51.984;20.956;2022-10-22T01:32:13;31.30;;;18.70;;
65597;SDS011;52267;51.984;20.956;2022-10-22T01:34:44;23.60;;;15.30;;
65597;SDS011;52267;51.984;20.956;2022-10-22T01:39:42;28.10;;;17.40;;
65597;SDS011;52267;51.984;20.956;2022-10-22T01:42:12;28.50;;;18.90;;
65597;SDS011;52267;51.984;20.956;2022-10-22T01:44:39;23.40;;;16.40;;
65597;SDS011;52267;51.984;20.956;2022-10-22T01:47:35;26.60;;;16.60;;
65597;SDS011;52267;51.984;20.956;2022-10-22T01:50:47;19.20;;;11.10;;
65597;SDS011;52267;51.984;20.956;2022-10-22T01:56:42;27.90;;;16.00;;
65597;SDS011;52267;51.984;20.956;2022-10-22T01:59:17;26.70;;;18.20;;
65597;SDS011;52267;51.984;20.956;2022-10-22T02:01:53;27.30;;;18.20;;
65597;SDS011;52267;51.984;20.956;2022-10-22T02:07:27;26.10;;;15.70;;
65597;SDS011;52267;51.984;20.956;2022-10-22T02:09:58;31.00;;;19.60;;
65597;SDS011;52267;51.984;20.956;2022-10-22T02:12:26;26.60;;;16.30;;
65597;SDS011;52267;51.984;20.956;2022-10-22T02:14:55;23.60;;;16.50;;
65597;SDS011;52267;51.984;20.956;2022-10-22T02:17:23;30.60;;;19.10;;
65597;SDS011;52267;51.984;20.956;2022-10-22T02:19:55;27.70;;;17.30;;
65597;SDS011;52267;51.984;20.956;2022-10-22T02:22:24;25.60;;;16.20;;
65597;SDS011;52267;51.984;20.956;2022-10-22T02:24:51;27.20;;;17.80;;
65597;SDS011;52267;51.984;20.956;2022-10-22T02:27:22;26.40;;;16.70;;
65597;SDS011;52267;51.984;20.956;2022-10-22T02:30:02;27.60;;;18.30;;
65597;SDS011;52267;51.984;20.956;2022-10-22T02:32:38;29.10;;;17.20;;
65597;SDS011;52267;51.984;20.956;2022-10-22T02:35:11;32.80;;;18.80;;
65597;SDS011;52267;51.984;20.956;2022-10-22T02:37:39;25.50;;;16.50;;
65597;SDS011;52267;51.984;20.956;2022-10-22T02:40:06;28.10;;;17.70;;
65597;SDS011;52267;51.984;20.956;2022-10-22T02:42:33;26.30;;;16.10;;
65597;SDS011;52267;51.984;20.956;2022-10-22T02:45:00;28.90;;;18.10;;
65597;SDS011;52267;51.984;20.956;2022-10-22T02:47:26;26.20;;;17.20;;
65597;SDS011;52267;51.984;20.956;2022-10-22T02:49:52;32.20;;;20.10;;
65597;SDS011;52267;51.984;20.956;2022-10-22T02:52:18;29.60;;;17.80;;
65597;SDS011;52267;51.984;20.956;2022-10-22T02:54:44;26.10;;;16.80;;
65597;SDS011;52267;51.984;20.956;2022-10-22T02:57:11;29.60;;;17.10;;
65597;SDS011;52267;51.984;20.956;2022-10-22T02:59:37;32.50;;;20.70;;
65597;SDS011;52267;51.984;20.956;2022-10-22T03:02:03;27.90;;;18.10;;
65597;SDS011;52267;51.984;20.956;2022-10-22T03:04:30;27.60;;;17.00;;
65597;SDS011;52267;51.984;20.956;2022-10-22T03:06:57;30.20;;;16.70;;
65597;SDS011;52267;51.984;20.956;2022-10-22T03:09:23;22.30;;;14.50;;
65597;SDS011;52267;51.984;20.956;2022-10-22T03:11:49;17.90;;;12.10;;
65597;SDS011;52267;51.984;20.956;2022-10-22T03:14:16;24.10;;;15.20;;
65597;SDS011;52267;51.984;20.956;2022-10-22T03:16:42;23.60;;;16.40;;
65597;SDS011;52267;51.984;20.956;2022-10-22T03:19:08;26.90;;;17.00;;
65597;SDS011;52267;51.984;20.956;2022-10-22T03:21:43;28.60;;;17.50;;
65597;SDS011;52267;51.984;20.956;2022-10-22T03:24:15;27.00;;;18.60;;
65597;SDS011;52267;51.984;20.956;2022-10-22T03:26:49;29.90;;;18.70;;
65597;SDS011;52267;51.984;20.956;2022-10-22T03:29:16;28.50;;;17.90;;
65597;SDS011;52267;51.984;20.956;2022-10-22T03:31:43;27.90;;;18.30;;
65597;SDS011;52267;51.984;20.956;2022-10-22T03:34:09;28.50;;;17.60;;
65597;SDS011;52267;51.984;20.956;2022-10-22T03:36:39;22.80;;;15.90;;
65597;SDS011;52267;51.984;20.956;2022-10-22T03:39:06;28.60;;;16.60;;
65597;SDS011;52267;51.984;20.956;2022-10-22T03:41:34;28.80;;;18.30;;
65597;SDS011;52267;51.984;20.956;2022-10-22T03:44:02;30.40;;;17.40;;
65597;SDS011;52267;51.984;20.956;2022-10-22T03:46:29;28.60;;;17.70;;
65597;SDS011;52267;51.984;20.956;2022-10-22T03:48:56;25.30;;;15.80;;
65597;SDS011;52267;51.984;20.956;2022-10-22T03:51:22;23.90;;;15.00;;
65597;SDS011;52267;51.984;20.956;2022-10-22T03:53:48;29.60;;;17.50;;
65597;SDS011;52267;51.984;20.956;2022-10-22T03:56:14;21.20;;;12.50;;
65597;SDS011;52267;51.984;20.956;2022-10-22T03:58:40;30.60;;;19.90;;
65597;SDS011;52267;51.984;20.956;2022-10-22T04:01:12;22.90;;;15.00;;
65597;SDS011;52267;51.984;20.956;2022-10-22T04:03:39;28.50;;;16.20;;
65597;SDS011;52267;51.984;20.956;2022-10-22T04:06:08;29.60;;;17.90;;
65597;SDS011;52267;51.984;20.956;2022-10-22T04:08:38;29.10;;;18.70;;
65597;SDS011;52267;51.984;20.956;2022-10-22T04:11:05;28.90;;;18.50;;
65597;SDS011;52267;51.984;20.956;2022-10-22T04:13:32;31.40;;;18.60;;
65597;SDS011;52267;51.984;20.956;2022-10-22T04:16:10;29.10;;;18.60;;
65597;SDS011;52267;51.984;20.956;2022-10-22T04:18:37;26.60;;;18.60;;
65597;SDS011;52267;51.984;20.956;2022-10-22T04:21:05;37.40;;;21.90;;
65597;SDS011;52267;51.984;20.956;2022-10-22T04:23:33;31.10;;;19.60;;
65597;SDS011;52267;51.984;20.956;2022-10-22T04:26:01;30.90;;;20.50;;
65597;SDS011;52267;51.984;20.956;2022-10-22T04:28:32;32.90;;;21.50;;
65597;SDS011;52267;51.984;20.956;2022-10-22T04:30:59;27.30;;;19.00;;
65597;SDS011;52267;51.984;20.956;2022-10-22T04:33:25;31.00;;;19.30;;
65597;SDS011;52267;51.984;20.956;2022-10-22T04:35:51;28.10;;;18.00;;
65597;SDS011;52267;51.984;20.956;2022-10-22T04:38:18;30.20;;;18.80;;
65597;SDS011;52267;51.984;20.956;2022-10-22T04:40:44;30.10;;;18.00;;
65597;SDS011;52267;51.984;20.956;2022-10-22T04:43:10;29.70;;;17.80;;
65597;SDS011;52267;51.984;20.956;2022-10-22T04:45:36;27.10;;;16.50;;
65597;SDS011;52267;51.984;20.956;2022-10-22T04:48:03;28.10;;;18.40;;
65597;SDS011;52267;51.984;20.956;2022-10-22T04:50:29;25.20;;;16.60;;
65597;SDS011;52267;51.984;20.956;2022-10-22T04:52:55;27.40;;;18.60;;
65597;SDS011;52267;51.984;20.956;2022-10-22T04:55:21;29.20;;;19.50;;
65597;SDS011;52267;51.984;20.956;2022-10-22T04:57:48;30.50;;;19.00;;
65597;SDS011;52267;51.984;20.956;2022-10-22T05:00:14;31.60;;;21.40;;
65597;SDS011;52267;51.984;20.956;2022-10-22T05:02:41;34.10;;;23.50;;
65597;SDS011;52267;51.984;20.956;2022-10-22T05:05:09;30.60;;;18.70;;
65597;SDS011;52267;51.984;20.956;2022-10-22T05:07:36;26.30;;;17.60;;
65597;SDS011;52267;51.984;20.956;2022-10-22T05:10:03;32.30;;;20.40;;
65597;SDS011;52267;51.984;20.956;2022-10-22T05:12:29;28.90;;;18.40;;
65597;SDS011;52267;51.984;20.956;2022-10-22T05:14:55;27.70;;;19.60;;
65597;SDS011;52267;51.984;20.956;2022-10-22T05:17:22;28.30;;;16.30;;
65597;SDS011;52267;51.984;20.956;2022-10-22T05:19:48;31.50;;;19.90;;
65597;SDS011;52267;51.984;20.956;2022-10-22T05:22:14;31.00;;;18.90;;
65597;SDS011;52267;51.984;20.956;2022-10-22T05:24:40;31.80;;;19.50;;
65597;SDS011;52267;51.984;20.956;2022-10-22T05:27:06;29.60;;;18.10;;
65597;SDS011;52267;51.984;20.956;2022-10-22T05:29:33;29.70;;;19.10;;
65597;SDS011;52267;51.984;20.956;2022-10-22T05:31:59;30.80;;;19.00;;
65597;SDS011;52267;51.984;20.956;2022-10-22T05:34:25;30.70;;;18.60;;
65597;SDS011;52267;51.984;20.956;2022-10-22T05:36:51;27.90;;;17.80;;
65597;SDS011;52267;51.984;20.956;2022-10-22T05:39:17;25.20;;;15.80;;
65597;SDS011;52267;51.984;20.956;2022-10-22T05:41:44;27.50;;;18.20;;
65597;SDS011;52267;51.984;20.956;2022-10-22T05:44:11;24.60;;;17.10;;
65597;SDS011;52267;51.984;20.956;2022-10-22T05:46:38;27.80;;;18.50;;
65597;SDS011;52267;51.984;20.956;2022-10-22T05:49:06;30.80;;;20.30;;
65597;SDS011;52267;51.984;20.956;2022-10-22T05:51:34;23.10;;;15.20;;
65597;SDS011;52267;51.984;20.956;2022-10-22T05:54:04;28.40;;;17.30;;
65597;SDS011;52267;51.984;20.956;2022-10-22T05:56:33;27.20;;;18.10;;
65597;SDS011;52267;51.984;20.956;2022-10-22T05:59:00;26.60;;;17.20;;
65597;SDS011;52267;51.984;20.956;2022-10-22T06:01:28;22.80;;;15.40;;
65597;SDS011;52267;51.984;20.956;2022-10-22T06:04:24;27.00;;;18.00;;
65597;SDS011;52267;51.984;20.956;2022-10-22T07:53:13;27.90;;;17.50;;
65597;SDS011;52267;51.984;20.956;2022-10-22T07:55:39;19.60;;;13.60;;
65597;SDS011;52267;51.984;20.956;2022-10-22T07:58:05;20.10;;;13.20;;
65597;SDS011;52267;51.984;20.956;2022-10-22T08:00:32;21.90;;;14.00;;
65597;SDS011;52267;51.984;20.956;2022-10-22T08:03:00;27.20;;;17.70;;
65597;SDS011;52267;51.984;20.956;2022-10-22T08:05:26;30.10;;;18.50;;
65597;SDS011;52267;51.984;20.956;2022-10-22T08:07:52;20.00;;;13.80;;
65597;SDS011;52267;51.984;20.956;2022-10-22T08:10:18;19.80;;;12.80;;
65597;SDS011;52267;51.984;20.956;2022-10-22T08:12:45;16.90;;;12.50;;
65597;SDS011;52267;51.984;20.956;2022-10-22T08:15:11;17.70;;;12.00;;
65597;SDS011;52267;51.984;20.956;2022-10-22T08:17:37;16.80;;;9.70;;
65597;SDS011;52267;51.984;20.956;2022-10-22T08:20:04;16.50;;;11.10;;
65597;SDS011;52267;51.984;20.956;2022-10-22T08:22:30;18.30;;;12.60;;
65597;SDS011;52267;51.984;20.956;2022-10-22T08:24:57;18.00;;;11.90;;
65597;SDS011;52267;51.984;20.956;2022-10-22T08:27:25;18.00;;;11.00;;
65597;SDS011;52267;51.984;20.956;2022-10-22T08:29:51;23.30;;;13.10;;
65597;SDS011;52267;51.984;20.956;2022-10-22T08:32:17;19.90;;;11.50;;
65597;SDS011;52267;51.984;20.956;2022-10-22T08:34:44;15.10;;;10.40;;
65597;SDS011;52267;51.984;20.956;2022-10-22T08:37:10;20.70;;;12.40;;
65597;SDS011;52267;51.984;20.956;2022-10-22T08:39:39;18.10;;;11.30;;
65597;SDS011;52267;51.984;20.956;2022-10-22T08:45:19;19.60;;;11.20;;
65597;SDS011;52267;51.984;20.956;2022-10-22T08:48:04;23.20;;;12.90;;
65597;SDS011;52267;51.984;20.956;2022-10-22T08:50:55;24.10;;;13.70;;
65597;SDS011;52267;51.984;20.956;2022-10-22T08:53:29;22.00;;;13.50;;
65597;SDS011;52267;51.984;20.956;2022-10-22T08:55:59;22.60;;;12.70;;
65597;SDS011;52267;51.984;20.956;2022-10-22T09:01:12;26.10;;;15.10;;
65597;SDS011;52267;51.984;20.956;2022-10-22T09:06:25;14.90;;;8.90;;
65597;SDS011;52267;51.984;20.956;2022-10-22T09:08:55;17.20;;;11.00;;
65597;SDS011;52267;51.984;20.956;2022-10-22T09:14:00;23.20;;;14.30;;
65597;SDS011;52267;51.984;20.956;2022-10-22T09:16:46;18.60;;;13.00;;
65597;SDS011;52267;51.984;20.956;2022-10-22T09:19:52;31.10;;;19.80;;
65597;SDS011;52267;51.984;20.956;2022-10-22T09:25:30;46.30;;;28.80;;
65597;SDS011;52267;51.984;20.956;2022-10-22T09:27:57;21.40;;;14.80;;
65597;SDS011;52267;51.984;20.956;2022-10-22T09:30:29;17.70;;;12.90;;
65597;SDS011;52267;51.984;20.956;2022-10-22T09:35:44;22.80;;;16.40;;
65597;SDS011;52267;51.984;20.956;2022-10-22T09:38:14;18.30;;;12.30;;
65597;SDS011;52267;51.984;20.956;2022-10-22T09:40:51;15.50;;;10.30;;
65597;SDS011;52267;51.984;20.956;2022-10-22T09:43:19;19.40;;;12.60;;
65597;SDS011;52267;51.984;20.956;2022-10-22T09:45:46;18.70;;;11.70;;
65597;SDS011;52267;51.984;20.956;2022-10-22T09:50:48;16.70;;;10.90;;
65597;SDS011;52267;51.984;20.956;2022-10-22T09:53:29;19.60;;;12.80;;
65597;SDS011;52267;51.984;20.956;2022-10-22T09:55:58;17.80;;;11.00;;
65597;SDS011;52267;51.984;20.956;2022-10-22T09:58:26;19.80;;;12.70;;
65597;SDS011;52267;51.984;20.956;2022-10-22T10:00:58;20.90;;;14.40;;
65597;SDS011;52267;51.984;20.956;2022-10-22T10:03:27;16.60;;;10.40;;
65597;SDS011;52267;51.984;20.956;2022-10-22T10:05:58;23.50;;;18.70;;
65597;SDS011;52267;51.984;20.956;2022-10-22T10:08:25;16.10;;;10.20;;
65597;SDS011;52267;51.984;20.956;2022-10-22T10:10:58;21.90;;;14.40;;
65597;SDS011;52267;51.984;20.956;2022-10-22T10:24:27;19.10;;;13.10;;
65597;SDS011;52267;51.984;20.956;2022-10-22T10:27:42;29.90;;;17.10;;
65597;SDS011;52267;51.984;20.956;2022-10-22T10:30:17;48.60;;;28.10;;
65597;SDS011;52267;51.984;20.956;2022-10-22T10:41:18;21.90;;;15.20;;
65597;SDS011;52267;51.984;20.956;2022-10-22T10:46:49;19.00;;;11.70;;
65597;SDS011;52267;51.984;20.956;2022-10-22T10:49:26;28.30;;;16.20;;
65597;SDS011;52267;51.984;20.956;2022-10-22T10:54:50;20.60;;;13.50;;
65597;SDS011;52267;51.984;20.956;2022-10-22T11:00:03;18.70;;;12.30;;
65597;SDS011;52267;51.984;20.956;2022-10-22T11:02:52;20.10;;;12.00;;
65597;SDS011;52267;51.984;20.956;2022-10-22T11:05:38;16.50;;;11.60;;
65597;SDS011;52267;51.984;20.956;2022-10-22T11:08:22;20.10;;;13.20;;
65597;SDS011;52267;51.984;20.956;2022-10-22T11:13:48;62.30;;;33.30;;
65597;SDS011;52267;51.984;20.956;2022-10-22T11:16:48;19.50;;;11.60;;
65597;SDS011;52267;51.984;20.956;2022-10-22T11:19:41;21.80;;;14.70;;
65597;SDS011;52267;51.984;20.956;2022-10-22T11:22:30;25.80;;;16.70;;
65597;SDS011;52267;51.984;20.956;2022-10-22T11:25:31;19.80;;;12.90;;
65597;SDS011;52267;51.984;20.956;2022-10-22T11:28:08;20.70;;;13.40;;
65597;SDS011;52267;51.984;20.956;2022-10-22T11:30:42;18.50;;;11.90;;
65597;SDS011;52267;51.984;20.956;2022-10-22T11:35:43;21.00;;;13.00;;
65597;SDS011;52267;51.984;20.956;2022-10-22T11:38:19;20.30;;;12.80;;
65597;SDS011;52267;51.984;20.956;2022-10-22T11:41:03;23.90;;;14.90;;
65597;SDS011;52267;51.984;20.956;2022-10-22T11:43:55;25.50;;;15.80;;
65597;SDS011;52267;51.984;20.956;2022-10-22T11:51:40;16.20;;;10.80;;
65597;SDS011;52267;51.984;20.956;2022-10-22T11:54:38;22.60;;;14.10;;
65597;SDS011;52267;51.984;20.956;2022-10-22T12:07:57;18.70;;;12.40;;
65597;SDS011;52267;51.984;20.956;2022-10-22T12:10:32;19.20;;;11.20;;
65597;SDS011;52267;51.984;20.956;2022-10-22T12:13:12;21.00;;;12.00;;
65597;SDS011;52267;51.984;20.956;2022-10-22T12:15:47;19.20;;;13.40;;
65597;SDS011;52267;51.984;20.956;2022-10-22T12:18:15;25.10;;;15.00;;
65597;SDS011;52267;51.984;20.956;2022-10-22T12:20:41;21.90;;;14.30;;
65597;SDS011;52267;51.984;20.956;2022-10-22T12:23:10;30.10;;;15.90;;
65597;SDS011;52267;51.984;20.956;2022-10-22T12:25:37;20.70;;;13.80;;
65597;SDS011;52267;51.984;20.956;2022-10-22T12:28:04;27.70;;;18.60;;
65597;SDS011;52267;51.984;20.956;2022-10-22T12:30:36;22.80;;;14.00;;
65597;SDS011;52267;51.984;20.956;2022-10-22T12:33:06;24.10;;;16.80;;
65597;SDS011;52267;51.984;20.956;2022-10-22T12:35:41;23.10;;;15.50;;
65597;SDS011;52267;51.984;20.956;2022-10-22T12:38:17;18.30;;;13.00;;
65597;SDS011;52267;51.984;20.956;2022-10-22T12:40:45;21.50;;;12.80;;
65597;SDS011;52267;51.984;20.956;2022-10-22T12:43:15;23.10;;;16.00;;
65597;SDS011;52267;51.984;20.956;2022-10-22T12:45:45;20.80;;;14.80;;
65597;SDS011;52267;51.984;20.956;2022-10-22T12:48:17;20.70;;;12.00;;
65597;SDS011;52267;51.984;20.956;2022-10-22T12:50:48;22.90;;;14.00;;
65597;SDS011;52267;51.984;20.956;2022-10-22T12:53:25;21.30;;;13.80;;
65597;SDS011;52267;51.984;20.956;2022-10-22T12:56:00;25.90;;;17.30;;
65597;SDS011;52267;51.984;20.956;2022-10-22T12:58:33;22.00;;;13.10;;
65597;SDS011;52267;51.984;20.956;2022-10-22T13:01:04;33.70;;;21.30;;
65597;SDS011;52267;51.984;20.956;2022-10-22T13:03:41;26.70;;;18.00;;
65597;SDS011;52267;51.984;20.956;2022-10-22T13:11:54;32.30;;;19.00;;
65597;SDS011;52267;51.984;20.956;2022-10-22T13:14:28;31.90;;;18.70;;
65597;SDS011;52267;51.984;20.956;2022-10-22T13:17:13;28.10;;;16.80;;
65597;SDS011;52267;51.984;20.956;2022-10-22T13:20:10;27.90;;;15.40;;
65597;SDS011;52267;51.984;20.956;2022-10-22T13:22:59;29.60;;;17.60;;
65597;SDS011;52267;51.984;20.956;2022-10-22T13:25:36;31.40;;;18.50;;
65597;SDS011;52267;51.984;20.956;2022-10-22T13:28:20;27.90;;;15.90;;
65597;SDS011;52267;51.984;20.956;2022-10-22T13:30:55;28.30;;;17.00;;
65597;SDS011;52267;51.984;20.956;2022-10-22T13:33:28;28.00;;;14.80;;
65597;SDS011;52267;51.984;20.956;2022-10-22T13:35:57;20.80;;;12.50;;
65597;SDS011;52267;51.984;20.956;2022-10-22T13:38:25;24.50;;;15.00;;
65597;SDS011;52267;51.984;20.956;2022-10-22T13:40:53;22.80;;;14.90;;
65597;SDS011;52267;51.984;20.956;2022-10-22T13:43:20;34.20;;;19.00;;
65597;SDS011;52267;51.984;20.956;2022-10-22T13:45:52;40.80;;;24.30;;
65597;SDS011;52267;51.984;20.956;2022-10-22T13:48:20;27.40;;;17.50;;
65597;SDS011;52267;51.984;20.956;2022-10-22T13:50:49;28.10;;;16.40;;
65597;SDS011;52267;51.984;20.956;2022-10-22T13:53:24;30.70;;;19.10;;
65597;SDS011;52267;51.984;20.956;2022-10-22T13:55:52;73.80;;;40.50;;
65597;SDS011;52267;51.984;20.956;2022-10-22T13:58:21;28.80;;;16.60;;
65597;SDS011;52267;51.984;20.956;2022-10-22T14:00:52;37.40;;;24.20;;
65597;SDS011;52267;51.984;20.956;2022-10-22T14:03:26;27.90;;;15.30;;
65597;SDS011;52267;51.984;20.956;2022-10-22T14:05:55;28.10;;;18.10;;
65597;SDS011;52267;51.984;20.956;2022-10-22T14:08:22;25.50;;;14.60;;
65597;SDS011;52267;51.984;20.956;2022-10-22T14:10:51;25.80;;;16.30;;
65597;SDS011;52267;51.984;20.956;2022-10-22T14:13:18;28.80;;;18.60;;
65597;SDS011;52267;51.984;20.956;2022-10-22T14:15:47;30.50;;;18.40;;
65597;SDS011;52267;51.984;20.956;2022-10-22T14:18:18;30.90;;;20.30;;
65597;SDS011;52267;51.984;20.956;2022-10-22T14:20:51;32.70;;;23.30;;
65597;SDS011;52267;51.984;20.956;2022-10-22T14:23:22;29.80;;;19.20;;
65597;SDS011;52267;51.984;20.956;2022-10-22T14:25:49;29.30;;;19.10;;
65597;SDS011;52267;51.984;20.956;2022-10-22T14:28:16;37.50;;;23.00;;
65597;SDS011;52267;51.984;20.956;2022-10-22T14:30:43;27.90;;;18.60;;
65597;SDS011;52267;51.984;20.956;2022-10-22T14:33:16;33.80;;;21.20;;
65597;SDS011;52267;51.984;20.956;2022-10-22T14:35:44;28.90;;;17.70;;
65597;SDS011;52267;51.984;20.956;2022-10-22T14:38:12;26.80;;;16.50;;
65597;SDS011;52267;51.984;20.956;2022-10-22T14:40:39;28.50;;;19.00;;
65597;SDS011;52267;51.984;20.956;2022-10-22T14:43:14;35.20;;;22.70;;
65597;SDS011;52267;51.984;20.956;2022-10-22T14:45:48;37.20;;;24.50;;
65597;SDS011;52267;51.984;20.956;2022-10-22T14:48:15;30.50;;;19.50;;
65597;SDS011;52267;51.984;20.956;2022-10-22T14:50:43;38.10;;;25.60;;
65597;SDS011;52267;51.984;20.956;2022-10-22T14:53:11;32.00;;;20.70;;
65597;SDS011;52267;51.984;20.956;2022-10-22T14:55:42;39.90;;;23.40;;
65597;SDS011;52267;51.984;20.956;2022-10-22T14:58:10;36.70;;;24.10;;
65597;SDS011;52267;51.984;20.956;2022-10-22T15:00:39;33.90;;;22.30;;
65597;SDS011;52267;51.984;20.956;2022-10-22T15:03:07;32.00;;;20.40;;
65597;SDS011;52267;51.984;20.956;2022-10-22T15:05:34;31.10;;;18.70;;
65597;SDS011;52267;51.984;20.956;2022-10-22T15:08:01;49.50;;;27.90;;
65597;SDS011;52267;51.984;20.956;2022-10-22T15:10:28;77.90;;;39.10;;
65597;SDS011;52267;51.984;20.956;2022-10-22T15:12:57;98.30;;;48.50;;
65597;SDS011;52267;51.984;20.956;2022-10-22T15:15:24;99.90;;;50.10;;
65597;SDS011;52267;51.984;20.956;2022-10-22T15:17:50;53.40;;;27.70;;
65597;SDS011;52267;51.984;20.956;2022-10-22T15:20:16;52.60;;;28.50;;
65597;SDS011;52267;51.984;20.956;2022-10-22T15:22:43;46.00;;;25.40;;
65597;SDS011;52267;51.984;20.956;2022-10-22T15:25:12;85.20;;;48.40;;
65597;SDS011;52267;51.984;20.956;2022-10-22T15:27:38;77.00;;;43.10;;
65597;SDS011;52267;51.984;20.956;2022-10-22T15:30:06;63.70;;;37.90;;
65597;SDS011;52267;51.984;20.956;2022-10-22T15:32:33;37.40;;;20.50;;
65597;SDS011;52267;51.984;20.956;2022-10-22T15:34:59;37.70;;;23.90;;
65597;SDS011;52267;51.984;20.956;2022-10-22T15:37:30;37.90;;;22.80;;
65597;SDS011;52267;51.984;20.956;2022-10-22T15:39:56;46.10;;;27.60;;
65597;SDS011;52267;51.984;20.956;2022-10-22T15:42:23;60.40;;;40.30;;
65597;SDS011;52267;51.984;20.956;2022-10-22T15:44:56;42.10;;;26.70;;
65597;SDS011;52267;51.984;20.956;2022-10-22T15:47:23;33.00;;;20.20;;
65597;SDS011;52267;51.984;20.956;2022-10-22T15:49:54;27.80;;;17.80;;
65597;SDS011;52267;51.984;20.956;2022-10-22T15:52:20;32.40;;;19.20;;
65597;SDS011;52267;51.984;20.956;2022-10-22T15:54:46;33.00;;;18.70;;
65597;SDS011;52267;51.984;20.956;2022-10-22T15:57:13;30.90;;;19.60;;
65597;SDS011;52267;51.984;20.956;2022-10-22T15:59:39;33.40;;;23.10;;
65597;SDS011;52267;51.984;20.956;2022-10-22T16:02:05;40.00;;;29.80;;
65597;SDS011;52267;51.984;20.956;2022-10-22T16:04:32;33.30;;;23.80;;
65597;SDS011;52267;51.984;20.956;2022-10-22T16:06:58;35.20;;;22.20;;
65597;SDS011;52267;51.984;20.956;2022-10-22T16:09:26;30.70;;;19.30;;
65597;SDS011;52267;51.984;20.956;2022-10-22T16:11:53;35.40;;;21.50;;
65597;SDS011;52267;51.984;20.956;2022-10-22T16:14:21;30.70;;;21.20;;
65597;SDS011;52267;51.984;20.956;2022-10-22T16:16:53;29.10;;;19.10;;
65597;SDS011;52267;51.984;20.956;2022-10-22T16:19:22;41.50;;;28.60;;
65597;SDS011;52267;51.984;20.956;2022-10-22T16:21:50;37.80;;;24.50;;
65597;SDS011;52267;51.984;20.956;2022-10-22T16:24:18;47.90;;;30.00;;
65597;SDS011;52267;51.984;20.956;2022-10-22T16:26:45;31.90;;;18.50;;
65597;SDS011;52267;51.984;20.956;2022-10-22T16:29:12;37.10;;;22.90;;
65597;SDS011;52267;51.984;20.956;2022-10-22T16:31:40;32.10;;;19.40;;
65597;SDS011;52267;51.984;20.956;2022-10-22T16:34:08;46.20;;;27.40;;
65597;SDS011;52267;51.984;20.956;2022-10-22T16:36:35;38.10;;;22.70;;
65597;SDS011;52267;51.984;20.956;2022-10-22T16:39:03;38.00;;;23.20;;
65597;SDS011;52267;51.984;20.956;2022-10-22T16:41:30;39.10;;;23.70;;
65597;SDS011;52267;51.984;20.956;2022-10-22T16:44:04;36.90;;;20.20;;
65597;SDS011;52267;51.984;20.956;2022-10-22T16:46:33;35.90;;;20.20;;
65597;SDS011;52267;51.984;20.956;2022-10-22T16:49:03;36.00;;;19.90;;
65597;SDS011;52267;51.984;20.956;2022-10-22T16:51:30;38.30;;;20.90;;
65597;SDS011;52267;51.984;20.956;2022-10-22T16:53:56;40.20;;;21.30;;
65597;SDS011;52267;51.984;20.956;2022-10-22T16:56:24;33.10;;;19.30;;
65597;SDS011;52267;51.984;20.956;2022-10-22T16:58:53;35.70;;;21.80;;
65597;SDS011;52267;51.984;20.956;2022-10-22T17:01:24;40.00;;;23.50;;
65597;SDS011;52267;51.984;20.956;2022-10-22T17:03:52;37.90;;;25.10;;
65597;SDS011;52267;51.984;20.956;2022-10-22T17:06:23;44.00;;;26.10;;
65597;SDS011;52267;51.984;20.956;2022-10-22T17:08:50;66.90;;;38.30;;
65597;SDS011;52267;51.984;20.956;2022-10-22T17:11:19;96.30;;;54.40;;
65597;SDS011;52267;51.984;20.956;2022-10-22T17:13:49;75.20;;;42.40;;
65597;SDS011;52267;51.984;20.956;2022-10-22T17:16:19;77.60;;;43.80;;
65597;SDS011;52267;51.984;20.956;2022-10-22T17:18:49;83.20;;;45.30;;
65597;SDS011;52267;51.984;20.956;2022-10-22T17:21:17;70.00;;;43.60;;
65597;SDS011;52267;51.984;20.956;2022-10-22T17:23:44;43.60;;;25.40;;
65597;SDS011;52267;51.984;20.956;2022-10-22T17:26:19;55.80;;;29.70;;
65597;SDS011;52267;51.984;20.956;2022-10-22T17:28:48;60.50;;;35.70;;
65597;SDS011;52267;51.984;20.956;2022-10-22T17:31:23;38.70;;;25.90;;
65597;SDS011;52267;51.984;20.956;2022-10-22T17:33:53;56.00;;;30.60;;
65597;SDS011;52267;51.984;20.956;2022-10-22T17:36:23;70.80;;;43.20;;
65597;SDS011;52267;51.984;20.956;2022-10-22T17:38:55;71.80;;;44.40;;
65597;SDS011;52267;51.984;20.956;2022-10-22T17:41:29;48.20;;;31.90;;
65597;SDS011;52267;51.984;20.956;2022-10-22T17:44:00;51.10;;;32.10;;
65597;SDS011;52267;51.984;20.956;2022-10-22T17:46:29;47.00;;;27.80;;
65597;SDS011;52267;51.984;20.956;2022-10-22T17:49:02;45.50;;;28.70;;
65597;SDS011;52267;51.984;20.956;2022-10-22T17:51:31;38.10;;;24.60;;
65597;SDS011;52267;51.984;20.956;2022-10-22T17:53:58;37.40;;;23.10;;
65597;SDS011;52267;51.984;20.956;2022-10-22T17:56:28;42.50;;;26.40;;
65597;SDS011;52267;51.984;20.956;2022-10-22T17:58:57;37.90;;;22.60;;